createdAt,value
2018-11-29T00:00:17.197Z,3.60
2018-11-29T00:02:45.932Z,3.60
2018-11-29T00:05:14.521Z,3.70
2018-11-29T00:07:43.232Z,3.60
2018-11-29T00:10:11.701Z,3.60
2018-11-29T00:12:40.197Z,3.60
2018-11-29T00:15:10.134Z,3.60
2018-11-29T00:17:39.152Z,3.70
2018-11-29T00:20:13.060Z,3.70
2018-11-29T00:22:41.801Z,3.60
2018-11-29T00:25:12.401Z,3.50
2018-11-29T00:27:40.908Z,3.50
2018-11-29T00:30:10.678Z,3.60
2018-11-29T00:32:39.213Z,3.50
2018-11-29T00:35:10.224Z,3.60
2018-11-29T00:37:38.711Z,3.60
2018-11-29T00:40:12.801Z,3.60
2018-11-29T00:42:41.260Z,3.60
2018-11-29T00:45:11.169Z,3.50
2018-11-29T00:47:39.756Z,3.50
2018-11-29T00:50:11.181Z,3.50
2018-11-29T00:52:40.590Z,3.60
2018-11-29T00:55:11.991Z,3.50
2018-11-29T00:57:40.579Z,3.50
2018-11-29T01:00:15.569Z,3.50
2018-11-29T01:02:44.056Z,3.50
2018-11-29T01:05:12.544Z,3.50
2018-11-29T01:07:41.000Z,3.50
2018-11-29T01:10:10.813Z,3.60
2018-11-29T01:12:39.269Z,3.60
2018-11-29T01:15:09.709Z,3.60
2018-11-29T01:17:38.436Z,3.60
2018-11-29T01:20:09.586Z,3.50
2018-11-29T01:22:38.118Z,3.50
2018-11-29T01:25:09.766Z,3.50
2018-11-29T01:27:38.245Z,3.60
2018-11-29T01:30:12.529Z,3.60
2018-11-29T01:32:41.034Z,3.50
2018-11-29T01:35:10.394Z,3.60
2018-11-29T01:37:38.870Z,3.60
2018-11-29T01:40:10.804Z,3.60
2018-11-29T01:42:39.241Z,3.60
2018-11-29T01:45:07.712Z,3.60
2018-11-29T01:47:36.177Z,3.60
2018-11-29T01:50:04.946Z,3.60
2018-11-29T01:52:33.426Z,3.60
2018-11-29T01:55:01.872Z,3.60
2018-11-29T01:57:30.565Z,3.60
2018-11-29T01:59:59.021Z,3.60
2018-11-29T02:02:27.474Z,3.50
2018-11-29T02:04:55.934Z,3.60
2018-11-29T02:07:24.342Z,3.60
2018-11-29T02:09:56.998Z,3.60
2018-11-29T02:12:25.422Z,3.60
2018-11-29T02:14:53.900Z,3.60
2018-11-29T02:17:22.593Z,3.60
2018-11-29T02:19:51.056Z,3.70
2018-11-29T02:22:19.511Z,3.70
2018-11-29T02:24:47.978Z,3.70
2018-11-29T02:27:16.401Z,3.70
2018-11-29T02:29:44.862Z,3.70
2018-11-29T02:32:13.493Z,3.80
2018-11-29T02:34:41.957Z,3.80
2018-11-29T02:37:10.621Z,3.90
2018-11-29T02:39:39.334Z,3.90
2018-11-29T02:42:07.817Z,4.00
2018-11-29T02:44:36.428Z,4.00
2018-11-29T02:47:04.944Z,4.00
2018-11-29T02:49:33.421Z,3.80
2018-11-29T02:52:02.208Z,3.80
2018-11-29T02:54:30.972Z,3.80
2018-11-29T02:56:59.481Z,3.70
2018-11-29T02:59:27.971Z,3.80
2018-11-29T03:01:56.762Z,3.90
2018-11-29T03:04:25.239Z,3.90
2018-11-29T03:06:53.705Z,4.00
2018-11-29T03:09:22.688Z,4.10
2018-11-29T03:11:51.132Z,4.10
2018-11-29T03:14:19.625Z,4.00
2018-11-29T03:16:48.085Z,4.00
2018-11-29T03:19:16.544Z,4.00
2018-11-29T03:21:44.973Z,4.00
2018-11-29T03:24:13.420Z,4.00
2018-11-29T03:26:41.841Z,4.00
2018-11-29T03:29:10.300Z,4.00
2018-11-29T03:31:38.770Z,4.00
2018-11-29T03:34:07.737Z,3.90
2018-11-29T03:36:36.201Z,3.90
2018-11-29T03:39:05.946Z,3.80
2018-11-29T03:41:34.785Z,3.90
2018-11-29T03:44:03.314Z,3.90
2018-11-29T03:46:31.752Z,3.80
2018-11-29T03:49:00.219Z,3.90
2018-11-29T03:51:28.671Z,3.90
2018-11-29T03:53:57.145Z,3.90
2018-11-29T03:56:25.874Z,3.90
2018-11-29T03:58:54.329Z,3.90
2018-11-29T04:01:22.770Z,3.90
2018-11-29T04:03:51.346Z,3.80
2018-11-29T04:06:19.852Z,3.80
2018-11-29T04:08:48.363Z,3.80
2018-11-29T04:11:16.825Z,3.80
2018-11-29T04:13:45.301Z,3.80
2018-11-29T04:16:13.820Z,3.90
2018-11-29T04:18:42.299Z,3.80
2018-11-29T04:21:10.782Z,3.80
2018-11-29T04:23:39.532Z,3.80
2018-11-29T04:26:08.101Z,3.80
2018-11-29T04:28:36.859Z,3.90
2018-11-29T04:31:05.660Z,3.90
2018-11-29T04:33:34.161Z,3.90
2018-11-29T04:36:02.636Z,3.90
2018-11-29T04:38:31.100Z,3.90
2018-11-29T04:40:59.617Z,4.00
2018-11-29T04:43:28.405Z,3.90
2018-11-29T04:46:08.178Z,3.90
2018-11-29T04:48:37.217Z,3.90
2018-11-29T04:51:05.731Z,3.90
2018-11-29T04:53:34.440Z,3.90
2018-11-29T04:56:02.941Z,3.80
2018-11-29T04:58:31.424Z,3.90
2018-11-29T05:00:59.931Z,4.10
2018-11-29T05:03:28.691Z,4.00
2018-11-29T05:05:57.227Z,4.00
2018-11-29T05:08:25.691Z,3.90
2018-11-29T05:10:54.182Z,4.10
2018-11-29T05:13:22.916Z,4.20
2018-11-29T05:15:51.729Z,4.00
2018-11-29T05:18:20.193Z,4.10
2018-11-29T05:20:48.940Z,4.20
2018-11-29T05:23:17.405Z,4.10
2018-11-29T05:25:45.890Z,4.20
2018-11-29T05:28:14.701Z,4.00
2018-11-29T05:30:43.201Z,4.00
2018-11-29T05:33:11.920Z,4.20
2018-11-29T05:35:40.402Z,4.20
2018-11-29T05:38:08.874Z,4.20
2018-11-29T05:40:37.397Z,4.30
2018-11-29T05:43:06.409Z,4.20
2018-11-29T05:45:35.440Z,4.10
2018-11-29T05:48:03.947Z,4.00
2018-11-29T05:50:32.401Z,4.10
2018-11-29T05:53:00.890Z,4.20
2018-11-29T05:55:29.707Z,4.20
2018-11-29T05:57:58.217Z,4.10
2018-11-29T06:00:27.076Z,4.20
2018-11-29T06:02:55.568Z,4.10
2018-11-29T06:05:24.056Z,4.20
2018-11-29T06:07:52.844Z,4.10
2018-11-29T06:10:21.337Z,4.10
2018-11-29T06:12:50.575Z,4.10
2018-11-29T06:15:19.081Z,4.10
2018-11-29T06:17:47.600Z,4.00
2018-11-29T06:20:19.717Z,4.00
2018-11-29T06:22:48.543Z,4.00
2018-11-29T06:25:17.059Z,4.00
2018-11-29T06:27:45.566Z,4.10
2018-11-29T06:30:17.978Z,4.30
2018-11-29T06:32:47.174Z,4.20
2018-11-29T06:35:15.917Z,4.20
2018-11-29T06:37:44.433Z,4.10
2018-11-29T06:40:14.709Z,4.20
2018-11-29T06:42:43.367Z,4.20
2018-11-29T06:45:14.792Z,4.20
2018-11-29T06:47:43.534Z,4.20
2018-11-29T06:50:14.034Z,4.20
2018-11-29T06:52:43.844Z,4.20
2018-11-29T06:55:14.781Z,4.20
2018-11-29T06:57:43.589Z,4.00
2018-11-29T07:00:19.308Z,4.00
2018-11-29T07:02:48.700Z,3.90
2018-11-29T07:05:17.226Z,4.00
2018-11-29T07:07:45.849Z,4.00
2018-11-29T07:10:14.746Z,4.10
2018-11-29T07:12:43.306Z,4.20
2018-11-29T07:15:12.908Z,4.10
2018-11-29T07:17:42.785Z,3.90
2018-11-29T07:20:15.654Z,3.90
2018-11-29T07:22:44.317Z,3.90
2018-11-29T07:25:13.108Z,3.90
2018-11-29T07:27:42.024Z,4.00
2018-11-29T07:30:15.944Z,4.00
2018-11-29T07:32:44.549Z,4.00
2018-11-29T07:35:15.113Z,3.90
2018-11-29T07:37:44.668Z,3.90
2018-11-29T07:40:16.479Z,4.00
2018-11-29T07:42:57.662Z,3.80
2018-11-29T07:45:26.616Z,3.90
2018-11-29T07:47:55.114Z,4.10
2018-11-29T07:50:30.748Z,4.00
2018-11-29T07:52:59.536Z,4.00
2018-11-29T07:55:28.133Z,4.00
2018-11-29T07:57:56.656Z,4.00
2018-11-29T08:00:25.303Z,3.90
2018-11-29T08:02:53.764Z,3.90
2018-11-29T08:05:22.310Z,3.80
2018-11-29T08:07:51.143Z,4.00
2018-11-29T08:10:20.997Z,4.00
2018-11-29T08:12:49.655Z,4.00
2018-11-29T08:15:19.653Z,4.10
2018-11-29T08:17:48.241Z,4.10
2018-11-29T08:20:18.873Z,4.20
2018-11-29T08:22:47.721Z,4.10
2018-11-29T08:25:16.218Z,4.10
2018-11-29T08:27:45.160Z,4.10
2018-11-29T08:30:15.172Z,4.10
2018-11-29T08:32:43.724Z,4.20
2018-11-29T08:35:14.517Z,4.30
2018-11-29T08:37:44.589Z,4.30
2018-11-29T08:40:17.341Z,4.40
2018-11-29T08:42:45.973Z,4.50
2018-11-29T08:45:14.576Z,4.40
2018-11-29T08:47:49.720Z,4.40
2018-11-29T08:50:18.507Z,4.40
2018-11-29T08:52:47.593Z,4.50
2018-11-29T08:55:17.976Z,4.50
2018-11-29T08:57:47.423Z,4.50
2018-11-29T09:00:17.813Z,4.40
2018-11-29T09:02:46.381Z,4.40
2018-11-29T09:05:15.340Z,4.60
2018-11-29T09:07:44.883Z,4.60
2018-11-29T09:10:16.666Z,4.60
2018-11-29T09:12:45.156Z,4.50
2018-11-29T09:15:15.113Z,4.60
2018-11-29T09:17:43.971Z,4.60
2018-11-29T09:20:13.632Z,4.70
2018-11-29T09:22:42.532Z,4.70
2018-11-29T09:25:12.327Z,4.70
2018-11-29T09:27:40.797Z,4.60
2018-11-29T09:30:15.993Z,4.70
2018-11-29T09:32:45.405Z,4.70
2018-11-29T09:35:13.985Z,4.70
2018-11-29T09:37:42.499Z,4.70
2018-11-29T09:40:17.222Z,4.80
2018-11-29T09:42:45.885Z,5.00
2018-11-29T09:45:21.339Z,5.10
2018-11-29T09:47:53.304Z,5.30
2018-11-29T09:50:22.011Z,5.50
2018-11-29T09:52:50.551Z,5.40
2018-11-29T09:55:19.639Z,5.40
2018-11-29T09:57:49.841Z,5.40
2018-11-29T10:00:27.210Z,5.40
2018-11-29T10:02:54.748Z,5.60
2018-11-29T10:05:23.420Z,5.70
2018-11-29T10:07:52.048Z,5.70
2018-11-29T10:10:20.553Z,5.60
2018-11-29T10:12:49.089Z,5.70
2018-11-29T10:15:17.856Z,5.60
2018-11-29T10:17:53.627Z,5.70
2018-11-29T10:20:22.107Z,5.80
2018-11-29T10:22:52.810Z,5.90
2018-11-29T10:25:24.998Z,5.80
2018-11-29T10:27:55.402Z,5.90
2018-11-29T10:30:27.426Z,6.00
2018-11-29T10:32:56.188Z,5.90
2018-11-29T10:35:25.646Z,5.70
2018-11-29T10:37:53.305Z,5.80
2018-11-29T10:40:21.898Z,5.80
2018-11-29T10:42:50.839Z,5.80
2018-11-29T10:45:20.650Z,5.80
2018-11-29T10:47:52.383Z,5.80
2018-11-29T10:50:20.155Z,5.80
2018-11-29T10:52:48.932Z,5.80
2018-11-29T10:55:19.577Z,5.80
2018-11-29T10:57:48.194Z,5.80
2018-11-29T11:00:27.265Z,5.70
2018-11-29T11:03:03.413Z,5.70
2018-11-29T11:05:32.225Z,5.70
2018-11-29T11:08:07.805Z,5.70
2018-11-29T11:10:29.661Z,5.70
2018-11-29T11:12:58.719Z,5.70
2018-11-29T11:15:27.324Z,5.60
2018-11-29T11:17:55.809Z,5.70
2018-11-29T11:20:24.625Z,5.60
2018-11-29T11:22:53.461Z,5.80
2018-11-29T11:25:22.352Z,5.80
2018-11-29T11:27:50.865Z,6.00
2018-11-29T11:30:20.512Z,5.90
2018-11-29T11:32:50.277Z,5.90
2018-11-29T11:35:19.295Z,5.90
2018-11-29T11:37:48.097Z,5.80
2018-11-29T11:40:17.297Z,5.80
2018-11-29T11:42:46.841Z,5.70
2018-11-29T11:45:17.880Z,5.90
2018-11-29T11:47:46.564Z,6.00
2018-11-29T11:50:19.784Z,6.00
2018-11-29T11:52:48.522Z,6.10
2018-11-29T11:55:19.256Z,6.10
2018-11-29T11:57:47.695Z,6.10
2018-11-29T12:00:20.224Z,6.00
2018-11-29T12:02:50.603Z,6.10
2018-11-29T12:05:19.439Z,6.10
2018-11-29T12:07:48.184Z,6.00
2018-11-29T12:10:17.829Z,6.00
2018-11-29T12:12:46.807Z,6.10
2018-11-29T12:15:15.744Z,5.90
2018-11-29T12:17:45.781Z,6.00
2018-11-29T12:20:17.986Z,5.90
2018-11-29T12:22:46.910Z,6.00
2018-11-29T12:25:16.489Z,6.10
2018-11-29T12:27:45.287Z,6.20
2018-11-29T12:30:17.552Z,6.20
2018-11-29T12:32:46.529Z,6.10
2018-11-29T12:35:15.462Z,6.10
2018-11-29T12:37:44.077Z,6.10
2018-11-29T12:40:13.714Z,6.10
2018-11-29T12:42:42.266Z,6.00
2018-11-29T12:45:12.661Z,6.10
2018-11-29T12:47:41.274Z,6.10
2018-11-29T12:50:12.782Z,6.10
2018-11-29T12:52:41.413Z,6.00
2018-11-29T12:55:10.882Z,6.00
2018-11-29T12:57:39.558Z,6.10
2018-11-29T13:00:18.852Z,6.10
2018-11-29T13:02:53.627Z,6.00
2018-11-29T13:05:22.158Z,6.10
2018-11-29T13:07:51.002Z,6.10
2018-11-29T13:10:21.404Z,6.10
2018-11-29T13:12:50.213Z,6.10
2018-11-29T13:15:28.126Z,6.10
2018-11-29T13:17:57.497Z,6.10
2018-11-29T13:20:26.283Z,6.10
2018-11-29T13:22:54.811Z,6.10
2018-11-29T13:25:24.842Z,6.00
2018-11-29T13:27:53.595Z,6.10
2018-11-29T13:30:22.749Z,6.20
2018-11-29T13:32:52.534Z,6.00
2018-11-29T13:35:27.320Z,6.20
2018-11-29T13:37:58.080Z,6.10
2018-11-29T13:40:27.509Z,6.10
2018-11-29T13:42:56.066Z,6.10
2018-11-29T13:45:24.657Z,6.10
2018-11-29T13:47:53.167Z,6.20
2018-11-29T13:50:21.687Z,6.10
2018-11-29T13:52:50.472Z,6.10
2018-11-29T13:55:19.315Z,6.00
2018-11-29T13:57:50.374Z,6.00
2018-11-29T14:00:20.232Z,6.00
2018-11-29T14:02:51.188Z,5.90
2018-11-29T14:05:19.733Z,5.90
2018-11-29T14:07:48.382Z,5.90
2018-11-29T14:10:21.170Z,6.00
2018-11-29T14:12:51.865Z,5.90
2018-11-29T14:15:27.876Z,6.00
2018-11-29T14:17:56.559Z,6.00
2018-11-29T14:20:25.301Z,6.00
2018-11-29T14:22:54.114Z,6.00
2018-11-29T14:25:22.677Z,5.80
2018-11-29T14:27:53.073Z,5.80
2018-11-29T14:30:26.382Z,6.00
2018-11-29T14:32:56.112Z,5.90
2018-11-29T14:35:24.935Z,5.80
2018-11-29T14:37:53.725Z,5.70
2018-11-29T14:40:25.787Z,5.70
2018-11-29T14:42:54.431Z,6.10
2018-11-29T14:45:24.221Z,6.20
2018-11-29T14:47:52.731Z,6.30
2018-11-29T14:50:30.108Z,6.20
2018-11-29T14:52:58.619Z,6.20
2018-11-29T14:55:27.232Z,6.10
2018-11-29T14:57:55.797Z,6.00
2018-11-29T15:00:24.615Z,5.90
2018-11-29T15:02:54.778Z,5.90
2018-11-29T15:05:29.628Z,5.80
2018-11-29T15:07:58.622Z,5.70
2018-11-29T15:10:27.358Z,5.60
2018-11-29T15:12:55.910Z,5.70
2018-11-29T15:15:25.434Z,5.80
2018-11-29T15:17:54.706Z,5.80
2018-11-29T15:20:28.057Z,5.70
2018-11-29T15:22:56.600Z,5.80
2018-11-29T15:25:25.398Z,5.90
2018-11-29T15:27:54.138Z,5.80
2018-11-29T15:30:23.662Z,5.60
2018-11-29T15:32:52.473Z,5.40
2018-11-29T15:35:21.110Z,5.50
2018-11-29T15:37:49.898Z,5.40
2018-11-29T15:40:18.950Z,5.40
2018-11-29T15:42:47.625Z,5.40
2018-11-29T15:45:21.353Z,5.40
2018-11-29T15:47:50.282Z,5.50
2018-11-29T15:50:19.115Z,5.60
2018-11-29T15:52:47.695Z,5.50
2018-11-29T15:55:24.229Z,5.40
2018-11-29T15:57:54.034Z,5.50
2018-11-29T16:00:25.151Z,5.30
2018-11-29T16:02:54.592Z,5.30
2018-11-29T16:05:23.375Z,5.40
2018-11-29T16:07:51.950Z,5.50
2018-11-29T16:10:22.124Z,5.70
2018-11-29T16:12:51.199Z,5.70
2018-11-29T16:15:21.025Z,5.70
2018-11-29T16:17:51.255Z,5.70
2018-11-29T16:20:30.716Z,5.60
2018-11-29T16:22:59.276Z,5.60
2018-11-29T16:25:28.286Z,5.60
2018-11-29T16:27:56.829Z,5.70
2018-11-29T16:30:35.322Z,5.60
2018-11-29T16:33:32.557Z,5.50
2018-11-29T16:36:01.449Z,5.50
2018-11-29T16:38:30.481Z,5.70
2018-11-29T16:40:59.021Z,5.60
2018-11-29T16:43:30.075Z,5.70
2018-11-29T16:45:58.896Z,5.70
2018-11-29T16:48:27.449Z,5.70
2018-11-29T16:50:55.945Z,5.80
2018-11-29T16:53:24.703Z,5.80
2018-11-29T16:55:53.333Z,5.80
2018-11-29T16:58:23.913Z,5.90
2018-11-29T17:00:52.539Z,5.80
2018-11-29T17:03:21.141Z,5.70
2018-11-29T17:05:49.699Z,5.50
2018-11-29T17:08:18.197Z,5.70
2018-11-29T17:10:46.689Z,5.70
2018-11-29T17:13:16.882Z,5.80
2018-11-29T17:15:45.622Z,5.70
2018-11-29T17:18:14.485Z,5.50
2018-11-29T17:20:43.052Z,5.50
2018-11-29T17:23:12.394Z,5.40
2018-11-29T17:25:40.872Z,5.30
2018-11-29T17:28:09.666Z,5.20
2018-11-29T17:30:38.830Z,5.10
2018-11-29T17:33:08.693Z,5.00
2018-11-29T17:35:37.499Z,5.00
2018-11-29T17:38:06.757Z,5.00
2018-11-29T17:40:36.146Z,4.90
2018-11-29T17:43:04.889Z,5.00
2018-11-29T17:45:33.674Z,5.20
2018-11-29T17:48:04.336Z,5.30
2018-11-29T17:50:34.666Z,5.30
2018-11-29T17:53:03.212Z,5.40
2018-11-29T17:55:31.696Z,5.20
2018-11-29T17:58:00.444Z,5.00
2018-11-29T18:00:31.520Z,5.00
2018-11-29T18:03:00.037Z,5.00
2018-11-29T18:05:28.817Z,4.80
2018-11-29T18:07:57.318Z,4.80
2018-11-29T18:10:27.009Z,4.80
2018-11-29T18:13:04.240Z,4.70
2018-11-29T18:15:34.767Z,4.80
2018-11-29T18:18:03.382Z,5.00
2018-11-29T18:20:32.822Z,5.10
2018-11-29T18:23:01.377Z,4.80
2018-11-29T18:25:30.109Z,4.50
2018-11-29T18:27:58.604Z,4.30
2018-11-29T18:30:27.348Z,4.50
2018-11-29T18:32:56.093Z,4.60
2018-11-29T18:35:24.926Z,4.40
2018-11-29T18:37:53.475Z,4.30
2018-11-29T18:40:22.688Z,4.30
2018-11-29T18:42:54.849Z,4.30
2018-11-29T18:45:24.696Z,4.20
2018-11-29T18:47:54.134Z,4.20
2018-11-29T18:50:24.147Z,4.00
2018-11-29T18:52:53.174Z,3.90
2018-11-29T18:55:22.934Z,4.20
2018-11-29T18:57:51.747Z,4.10
2018-11-29T19:00:30.348Z,4.50
2018-11-29T19:02:58.908Z,4.50
2018-11-29T19:05:27.802Z,4.50
2018-11-29T19:07:56.357Z,4.20
2018-11-29T19:10:24.921Z,3.90
2018-11-29T19:12:57.889Z,3.60
2018-11-29T19:15:26.689Z,3.50
2018-11-29T19:17:56.063Z,3.40
2018-11-29T19:20:24.869Z,3.20
2018-11-29T19:22:54.791Z,3.10
2018-11-29T19:25:23.326Z,3.60
2018-11-29T19:27:51.888Z,3.50
2018-11-29T19:30:26.426Z,3.50
2018-11-29T19:33:02.997Z,3.40
2018-11-29T19:35:31.722Z,3.60
2018-11-29T19:38:00.304Z,3.90
2018-11-29T19:40:28.900Z,3.90
2018-11-29T19:42:57.485Z,3.80
2018-11-29T19:45:26.010Z,3.50
2018-11-29T19:47:54.587Z,3.20
2018-11-29T19:50:23.432Z,3.10
2018-11-29T19:52:53.609Z,3.20
2018-11-29T19:55:27.514Z,3.20
2018-11-29T19:57:56.108Z,3.10
2018-11-29T20:00:24.903Z,3.10
2018-11-29T20:02:55.042Z,3.20
2018-11-29T20:05:23.861Z,3.50
2018-11-29T20:07:52.362Z,3.70
2018-11-29T20:10:20.970Z,3.60
2018-11-29T20:12:57.461Z,3.20
2018-11-29T20:15:25.967Z,2.90
2018-11-29T20:17:54.910Z,2.80
2018-11-29T20:20:23.454Z,2.80
2018-11-29T20:22:52.020Z,2.80
2018-11-29T20:25:21.998Z,3.20
2018-11-29T20:27:53.317Z,3.30
2018-11-29T20:30:22.926Z,3.30
2018-11-29T20:32:52.685Z,3.20
2018-11-29T20:35:21.309Z,3.00
2018-11-29T20:37:51.318Z,3.10
2018-11-29T20:40:24.633Z,2.90
2018-11-29T20:42:55.002Z,2.80
2018-11-29T20:45:29.493Z,2.70
2018-11-29T20:47:58.103Z,2.70
2018-11-29T20:50:28.196Z,2.90
2018-11-29T20:52:58.558Z,3.10
2018-11-29T20:55:28.405Z,3.00
2018-11-29T20:57:56.981Z,2.90
2018-11-29T21:00:25.612Z,2.90
2018-11-29T21:02:54.368Z,3.00
2018-11-29T21:05:24.284Z,3.00
2018-11-29T21:07:58.168Z,3.00
2018-11-29T21:10:26.893Z,3.00
2018-11-29T21:12:55.682Z,3.00
2018-11-29T21:15:24.462Z,2.90
2018-11-29T21:17:53.728Z,2.90
2018-11-29T21:20:22.457Z,2.90
2018-11-29T21:22:51.669Z,3.00
2018-11-29T21:25:22.995Z,3.00
2018-11-29T21:27:51.588Z,3.10
2018-11-29T21:30:20.098Z,3.20
2018-11-29T21:32:49.402Z,3.20
2018-11-29T21:35:20.780Z,3.10
2018-11-29T21:37:49.841Z,3.00
2018-11-29T21:40:20.940Z,2.90
2018-11-29T21:42:49.480Z,2.80
2018-11-29T21:45:18.253Z,2.80
2018-11-29T21:47:46.769Z,2.70
2018-11-29T21:50:15.310Z,2.70
2018-11-29T21:52:43.825Z,2.70
2018-11-29T21:55:12.767Z,2.60
2018-11-29T21:57:41.632Z,2.90
2018-11-29T22:00:20.765Z,3.10
2018-11-29T22:02:53.989Z,2.80
2018-11-29T22:05:22.529Z,3.00
2018-11-29T22:07:51.265Z,2.90
2018-11-29T22:10:20.066Z,2.80
2018-11-29T22:12:48.852Z,2.70
2018-11-29T22:15:17.393Z,2.60
2018-11-29T22:18:22.158Z,2.60
2018-11-29T22:21:01.269Z,2.50
2018-11-29T22:23:30.227Z,2.40
2018-11-29T22:25:59.797Z,2.50
2018-11-29T22:28:28.765Z,2.60
2018-11-29T22:30:57.593Z,2.70
2018-11-29T22:33:26.309Z,3.00
2018-11-29T22:35:54.912Z,2.90
2018-11-29T22:38:23.432Z,2.60
2018-11-29T22:40:52.166Z,2.50
2018-11-29T22:43:20.553Z,2.80
2018-11-29T22:45:49.140Z,3.00
2018-11-29T22:48:17.942Z,3.10
2018-11-29T22:50:46.758Z,3.10
2018-11-29T22:53:15.334Z,3.10
2018-11-29T22:55:44.357Z,2.90
2018-11-29T22:58:13.165Z,2.90
2018-11-29T23:00:47.037Z,2.70
2018-11-29T23:03:15.861Z,2.60
2018-11-29T23:05:44.817Z,2.80
2018-11-29T23:08:13.843Z,3.00
2018-11-29T23:10:42.722Z,2.90
2018-11-29T23:13:11.347Z,2.70
2018-11-29T23:15:40.570Z,2.60
2018-11-29T23:18:09.105Z,2.50
2018-11-29T23:20:37.736Z,2.50
2018-11-29T23:23:06.476Z,2.50
2018-11-29T23:25:35.748Z,2.50
2018-11-29T23:28:05.525Z,2.60
2018-11-29T23:30:34.134Z,2.60
2018-11-29T23:33:02.666Z,2.60
2018-11-29T23:35:31.287Z,2.50
2018-11-29T23:38:00.066Z,2.50
2018-11-29T23:40:28.795Z,2.40
2018-11-29T23:42:57.369Z,2.40
2018-11-29T23:45:25.960Z,2.50
2018-11-29T23:47:54.996Z,2.70
2018-11-29T23:50:23.490Z,2.80
2018-11-29T23:52:52.023Z,2.60
2018-11-29T23:55:22.056Z,2.70
2018-11-29T23:57:50.611Z,2.60
